createdAt,value
2017-10-13T00:03:52.312Z,7.10
2017-10-13T00:09:20.466Z,4.83
2017-10-13T00:14:48.656Z,12.23
2017-10-13T00:20:17.588Z,7.73
2017-10-13T00:25:45.731Z,6.83
2017-10-13T00:31:13.857Z,8.90
2017-10-13T00:36:42.007Z,6.80
2017-10-13T00:42:10.159Z,7.10
2017-10-13T00:47:38.298Z,20.83
2017-10-13T00:53:06.470Z,18.13
2017-10-13T00:58:35.370Z,21.07
2017-10-13T01:04:03.523Z,19.80
2017-10-13T01:09:31.662Z,14.00
2017-10-13T01:15:00.576Z,14.00
2017-10-13T01:20:28.712Z,12.90
2017-10-13T01:25:56.877Z,8.97
2017-10-13T01:31:25.026Z,8.67
2017-10-13T01:36:54.170Z,8.20
2017-10-13T01:42:23.099Z,8.20
2017-10-13T01:47:51.242Z,8.73
2017-10-13T01:53:19.382Z,8.30
2017-10-13T01:58:48.288Z,8.83
2017-10-13T02:04:16.549Z,9.07
2017-10-13T02:09:44.678Z,11.63
2017-10-13T02:15:13.575Z,10.07
2017-10-13T02:20:41.711Z,9.27
2017-10-13T02:26:10.643Z,7.83
2017-10-13T02:31:38.797Z,10.07
2017-10-13T02:37:06.945Z,8.13
2017-10-13T02:42:35.105Z,13.23
2017-10-13T02:48:03.361Z,9.03
2017-10-13T02:53:31.638Z,7.90
2017-10-13T02:58:59.783Z,8.40
2017-10-13T03:04:27.918Z,8.00
2017-10-13T03:09:56.040Z,10.13
2017-10-13T03:15:24.985Z,8.03
2017-10-13T03:20:53.213Z,11.13
2017-10-13T03:26:22.354Z,9.77
2017-10-13T03:31:50.510Z,11.40
2017-10-13T03:37:18.681Z,9.00
2017-10-13T03:42:47.580Z,7.77
2017-10-13T03:48:15.723Z,25.57
2017-10-13T03:53:43.871Z,24.40
2017-10-13T03:59:12.789Z,12.80
2017-10-13T04:04:40.913Z,10.17
2017-10-13T04:10:09.032Z,9.30
2017-10-13T04:15:37.181Z,10.40
2017-10-13T04:21:05.311Z,10.83
2017-10-13T04:26:34.302Z,10.27
2017-10-13T04:32:02.445Z,10.57
2017-10-13T04:37:30.591Z,9.47
2017-10-13T04:42:58.733Z,13.77
2017-10-13T04:48:26.881Z,9.80
2017-10-13T04:53:55.775Z,7.77
2017-10-13T04:59:23.950Z,16.03
2017-10-13T05:04:52.089Z,11.83
2017-10-13T05:10:21.136Z,26.93
2017-10-13T05:15:52.164Z,10.23
2017-10-13T05:21:20.295Z,10.90
2017-10-13T05:26:48.563Z,15.00
2017-10-13T05:32:16.686Z,10.43
2017-10-13T05:37:44.819Z,9.90
2017-10-13T05:43:12.972Z,18.30
2017-10-13T05:48:41.865Z,18.77
2017-10-13T05:54:10.011Z,11.07
2017-10-13T05:59:38.273Z,10.43
2017-10-13T06:05:06.412Z,10.53
2017-10-13T06:10:34.563Z,9.70
2017-10-13T06:16:03.452Z,9.00
2017-10-13T06:21:32.363Z,10.60
2017-10-13T06:27:00.526Z,14.67
2017-10-13T06:32:28.669Z,12.37
2017-10-13T06:37:56.826Z,14.60
2017-10-13T06:43:24.996Z,13.70
2017-10-13T06:48:53.156Z,12.57
2017-10-13T06:54:21.300Z,8.50
2017-10-13T06:59:49.447Z,14.17
2017-10-13T07:05:17.586Z,8.67
2017-10-13T07:10:46.501Z,11.53
2017-10-13T07:16:14.644Z,20.87
2017-10-13T07:21:42.807Z,13.63
2017-10-13T07:27:10.943Z,8.87
2017-10-13T07:32:39.078Z,12.40
2017-10-13T07:38:07.229Z,7.87
2017-10-13T07:43:35.390Z,14.83
2017-10-13T07:49:03.518Z,7.27
2017-10-13T07:54:31.663Z,6.37
2017-10-13T08:00:00.209Z,4.27
2017-10-13T08:05:28.401Z,5.47
2017-10-13T08:10:57.918Z,7.57
2017-10-13T08:16:26.841Z,6.60
2017-10-13T08:21:54.991Z,5.10
2017-10-13T08:27:24.669Z,6.00
2017-10-13T08:32:52.957Z,4.83
2017-10-13T08:38:21.136Z,5.17
2017-10-13T08:43:49.266Z,4.80
2017-10-13T08:49:18.171Z,3.40
2017-10-13T08:54:46.314Z,3.60
2017-10-13T09:00:14.476Z,3.17
2017-10-13T09:05:42.628Z,6.00
2017-10-13T09:11:10.781Z,4.87
2017-10-13T09:16:38.902Z,3.30
2017-10-13T09:22:07.535Z,4.17
2017-10-13T09:27:35.678Z,4.40
2017-10-13T09:33:03.802Z,4.50
2017-10-13T09:38:31.934Z,1.97
2017-10-13T09:44:00.075Z,4.20
2017-10-13T09:49:28.235Z,1.97
2017-10-13T09:54:56.455Z,4.50
2017-10-13T10:00:24.755Z,3.83
2017-10-13T10:05:53.464Z,2.27
2017-10-13T10:11:21.792Z,4.73
2017-10-13T10:16:49.983Z,3.37
2017-10-13T10:22:18.904Z,10.10
2017-10-13T10:27:47.056Z,1.77
2017-10-13T10:33:15.229Z,1.93
2017-10-13T10:38:43.399Z,4.20
2017-10-13T10:44:11.566Z,3.90
2017-10-13T10:49:39.707Z,1.70
2017-10-13T10:55:07.869Z,3.30
2017-10-13T11:00:36.009Z,3.30
2017-10-13T11:06:04.157Z,3.97
2017-10-13T11:11:32.450Z,2.90
2017-10-13T11:17:01.386Z,2.50
2017-10-13T11:22:29.517Z,2.30
2017-10-13T11:27:57.701Z,6.13
2017-10-13T11:33:25.869Z,3.10
2017-10-13T11:38:54.242Z,2.33
2017-10-13T11:44:22.407Z,5.43
2017-10-13T11:49:58.794Z,1.73
2017-10-13T11:55:27.712Z,4.27
2017-10-13T12:00:55.841Z,3.07
2017-10-13T12:06:23.986Z,2.50
2017-10-13T12:11:52.898Z,5.33
2017-10-13T12:17:21.052Z,5.03
2017-10-13T12:22:49.246Z,7.17
2017-10-13T12:28:17.396Z,3.50
2017-10-13T12:33:45.548Z,4.23
2017-10-13T12:39:13.743Z,6.60
2017-10-13T12:44:42.666Z,2.80
2017-10-13T12:50:10.829Z,3.50
2017-10-13T12:55:38.974Z,2.47
2017-10-13T13:01:07.099Z,4.70
2017-10-13T13:06:36.626Z,5.03
2017-10-13T13:12:04.787Z,3.30
2017-10-13T13:17:32.928Z,4.07
2017-10-13T13:23:02.182Z,3.90
2017-10-13T13:28:30.367Z,2.00
2017-10-13T13:33:58.637Z,2.23
2017-10-13T13:39:26.935Z,3.07
2017-10-13T13:44:55.606Z,2.03
2017-10-13T13:50:23.755Z,1.87
2017-10-13T13:55:51.911Z,7.73
2017-10-13T14:01:20.068Z,2.10
2017-10-13T14:06:48.244Z,2.30
2017-10-13T14:12:16.379Z,2.60
2017-10-13T14:17:44.640Z,2.80
2017-10-13T14:23:13.028Z,6.77
2017-10-13T14:28:41.164Z,1.80
2017-10-13T14:34:09.336Z,8.77
2017-10-13T14:39:37.500Z,2.10
2017-10-13T14:45:05.638Z,2.50
2017-10-13T14:50:33.816Z,6.50
2017-10-13T14:56:03.009Z,1.60
2017-10-13T15:01:31.955Z,1.93
2017-10-13T15:07:04.911Z,1.80
2017-10-13T15:12:33.374Z,4.30
2017-10-13T15:18:01.561Z,1.97
2017-10-13T15:23:29.743Z,3.03
2017-10-13T15:29:04.413Z,4.27
2017-10-13T15:34:38.266Z,3.47
2017-10-13T15:40:12.772Z,2.00
2017-10-13T15:45:46.658Z,2.50
2017-10-13T15:57:26.209Z,3.70
2017-10-13T16:02:55.259Z,7.47
2017-10-13T16:08:24.205Z,9.73
2017-10-13T16:13:52.428Z,5.07
2017-10-13T16:19:20.595Z,4.97
2017-10-13T16:24:48.760Z,5.77
2017-10-13T16:30:16.970Z,8.70
2017-10-13T16:35:45.875Z,11.60
2017-10-13T16:41:14.105Z,6.83
2017-10-13T16:46:42.309Z,5.87
2017-10-13T16:52:10.622Z,3.83
2017-10-13T16:57:38.929Z,8.40
2017-10-13T17:03:07.084Z,7.53
2017-10-13T17:08:35.336Z,5.80
2017-10-13T17:14:03.527Z,9.40
2017-10-13T17:19:31.648Z,5.27
2017-10-13T17:24:59.920Z,4.37
2017-10-13T17:30:28.179Z,9.73
2017-10-13T17:35:56.336Z,12.30
2017-10-13T17:41:24.844Z,9.60
2017-10-13T17:46:53.751Z,11.00
2017-10-13T17:52:22.909Z,50.20
2017-10-13T17:57:51.051Z,13.50
2017-10-13T18:03:19.216Z,15.20
2017-10-13T18:08:47.379Z,40.17
2017-10-13T18:14:15.534Z,39.30
2017-10-13T18:19:43.691Z,34.43
2017-10-13T18:25:11.964Z,40.23
2017-10-13T18:30:40.818Z,51.00
2017-10-13T18:36:08.993Z,26.60
2017-10-13T18:41:37.140Z,68.23
2017-10-13T18:47:05.416Z,26.43
2017-10-13T18:52:33.586Z,16.97
2017-10-13T18:58:01.752Z,17.87
2017-10-13T19:03:29.932Z,17.63
2017-10-13T19:08:58.094Z,18.40
2017-10-13T19:14:26.254Z,13.67
2017-10-13T19:19:55.172Z,12.93
2017-10-13T19:25:23.464Z,18.43
2017-10-13T19:30:52.628Z,16.20
2017-10-13T19:36:20.793Z,16.63
2017-10-13T19:41:49.367Z,18.40
2017-10-13T19:47:17.593Z,24.30
2017-10-13T19:52:47.771Z,29.63
2017-10-13T19:58:15.943Z,26.47
2017-10-13T20:03:44.963Z,26.70
2017-10-13T20:09:13.154Z,24.33
2017-10-13T20:14:41.315Z,17.83
2017-10-13T20:20:09.463Z,15.40
2017-10-13T20:25:37.641Z,14.97
2017-10-13T20:31:06.614Z,15.37
2017-10-13T20:36:34.759Z,12.63
2017-10-13T20:42:02.996Z,19.57
2017-10-13T20:47:31.198Z,12.40
2017-10-13T20:53:02.399Z,13.17
2017-10-13T20:58:30.534Z,12.20
2017-10-13T21:04:02.713Z,10.70
2017-10-13T21:09:30.909Z,12.43
2017-10-13T21:14:59.821Z,18.53
2017-10-13T21:20:28.113Z,10.23
2017-10-13T21:25:56.299Z,8.37
2017-10-13T21:31:24.524Z,14.80
2017-10-13T21:36:54.755Z,13.67
2017-10-13T21:42:22.935Z,13.70
2017-10-13T21:47:51.886Z,12.57
2017-10-13T21:53:20.032Z,16.13
2017-10-13T21:58:48.164Z,8.50
2017-10-13T22:04:16.294Z,14.03
2017-10-13T22:09:44.439Z,9.20
2017-10-13T22:15:12.572Z,10.20
2017-10-13T22:20:40.725Z,9.50
2017-10-13T22:26:10.848Z,16.57
2017-10-13T22:31:39.015Z,11.63
2017-10-13T22:37:07.143Z,13.83
2017-10-13T22:42:35.292Z,10.80
2017-10-13T22:48:04.205Z,13.87
2017-10-13T22:53:32.334Z,11.67
2017-10-13T22:59:00.537Z,9.40
2017-10-13T23:04:28.690Z,12.80
2017-10-13T23:09:56.822Z,12.37
2017-10-13T23:15:25.045Z,9.33
2017-10-13T23:20:53.952Z,13.13
2017-10-13T23:26:22.098Z,13.30
2017-10-13T23:31:50.242Z,15.53
2017-10-13T23:37:19.144Z,10.23
2017-10-13T23:42:48.268Z,9.57
2017-10-13T23:48:16.403Z,10.93
2017-10-13T23:53:44.546Z,10.13
2017-10-13T23:59:12.719Z,12.40
